Time;durP1;ratioP1;P1;durP2;ratioP2;P2;SDS_P1;SDS_P2;PMS_P1;PMS_P2;Temp;Humidity;BMP_temperature;BMP_pressure;BME280_temperature;BME280_humidity;BME280_pressure;Samples;Min_cycle;Max_cycle;Signal;HPM_P1;HPM_P2
2023/01/26 00:01:28;;;;;;;51.25;20.33;;;2.60;99.90;;;;;;6066266;23;20488;-79
2023/01/26 00:03:56;;;;;;;51.83;21.10;;;2.50;99.90;;;;;;6065697;23;20046;-78
2023/01/26 00:06:24;;;;;;;56.90;21.58;;;2.60;99.90;;;;;;6066934;23;20019;-79
2023/01/26 00:08:54;;;;;;;52.42;20.92;;;2.60;99.90;;;;;;6067459;23;20019;-79
2023/01/26 00:11:25;;;;;;;51.80;20.15;;;2.60;99.90;;;;;;6067004;23;20097;-79
2023/01/26 00:13:54;;;;;;;43.88;18.90;;;2.60;99.90;;;;;;6092867;23;20438;-79
2023/01/26 00:16:22;;;;;;;44.65;19.02;;;2.60;99.90;;;;;;6093727;23;20321;-79
2023/01/26 00:18:49;;;;;;;45.50;20.25;;;2.60;99.90;;;;;;6068278;23;20030;-79
2023/01/26 00:21:19;;;;;;;46.53;19.33;;;2.60;99.90;;;;;;6067908;23;20026;-79
2023/01/26 00:23:48;;;;;;;48.17;19.92;;;2.60;99.90;;;;;;6092604;23;20109;-79
2023/01/26 00:26:25;;;;;;;47.53;19.45;;;2.50;99.90;;;;;;6068430;23;20077;-79
2023/01/26 00:28:53;;;;;;;45.72;19.35;;;2.50;99.90;;;;;;6068727;23;20105;-79
2023/01/26 00:31:22;;;;;;;45.00;18.42;;;2.60;99.90;;;;;;6068298;23;20049;-79
2023/01/26 00:33:50;;;;;;;39.40;17.45;;;2.50;99.90;;;;;;6067352;23;20406;-79
2023/01/26 00:36:18;;;;;;;40.17;16.85;;;2.50;99.90;;;;;;6067590;23;20118;-79
2023/01/26 00:38:46;;;;;;;45.75;18.25;;;2.60;99.90;;;;;;6068088;23;20114;-79
2023/01/26 00:42:05;;;;;;;44.15;18.83;;;2.50;99.90;;;;;;6065774;23;20080;-79
2023/01/26 00:44:01;;;;;;;44.20;17.35;;;2.50;99.90;;;;;;6090883;23;20363;-79
2023/01/26 00:46:28;;;;;;;42.63;16.55;;;2.60;99.90;;;;;;6065785;23;20105;-79
2023/01/26 00:48:56;;;;;;;37.08;16.75;;;2.60;99.90;;;;;;6088942;23;20347;-79
2023/01/26 00:51:23;;;;;;;38.55;17.27;;;2.60;99.90;;;;;;6067302;23;20037;-79
2023/01/26 00:53:50;;;;;;;59.22;21.02;;;2.50;99.90;;;;;;6066631;23;20049;-79
2023/01/26 00:56:18;;;;;;;47.20;18.48;;;2.50;99.90;;;;;;6067071;23;20030;-79
2023/01/26 00:58:45;;;;;;;42.08;17.13;;;2.50;99.90;;;;;;6065618;23;20032;-79
2023/01/26 01:01:12;;;;;;;44.28;16.33;;;2.50;99.90;;;;;;6091791;23;20101;-79
2023/01/26 01:03:41;;;;;;;37.67;14.30;;;2.50;99.90;;;;;;6066567;23;20395;-79
2023/01/26 01:06:09;;;;;;;37.55;13.82;;;2.40;99.90;;;;;;6068493;23;20089;-79
2023/01/26 01:08:36;;;;;;;36.88;14.30;;;2.40;99.90;;;;;;6067420;23;20470;-79
2023/01/26 01:11:08;;;;;;;35.25;12.65;;;2.50;99.90;;;;;;6067446;23;20489;-79
2023/01/26 01:13:36;;;;;;;35.88;14.50;;;2.40;99.90;;;;;;6065093;23;20033;-79
2023/01/26 01:16:12;;;;;;;34.88;13.27;;;2.40;99.90;;;;;;6067145;23;20018;-79
2023/01/26 01:18:40;;;;;;;33.80;13.88;;;2.40;99.90;;;;;;6066257;23;20037;-79
2023/01/26 01:21:09;;;;;;;34.97;13.68;;;2.40;99.90;;;;;;6067509;23;20022;-79
2023/01/26 01:23:37;;;;;;;33.50;13.88;;;2.40;99.90;;;;;;6066207;23;20041;-79
2023/01/26 01:26:05;;;;;;;34.47;13.90;;;2.40;99.90;;;;;;6068756;23;20468;-79
2023/01/26 01:28:33;;;;;;;28.42;12.13;;;2.40;99.90;;;;;;6068756;23;20439;-79
2023/01/26 01:31:05;;;;;;;33.22;13.35;;;2.40;99.90;;;;;;6067605;23;20363;-79
2023/01/26 01:33:34;;;;;;;28.40;11.20;;;2.50;99.90;;;;;;6067086;23;20028;-79
2023/01/26 01:36:04;;;;;;;31.50;12.13;;;2.40;99.90;;;;;;6067816;23;20033;-79
2023/01/26 01:38:32;;;;;;;30.95;13.23;;;2.40;99.90;;;;;;6066883;23;20030;-79
2023/01/26 01:40:59;;;;;;;27.75;11.63;;;2.40;99.90;;;;;;6068168;23;20041;-79
2023/01/26 01:43:28;;;;;;;33.95;13.32;;;2.40;99.90;;;;;;6065099;23;20093;-79
2023/01/26 01:45:56;;;;;;;31.60;13.20;;;2.40;99.90;;;;;;6067070;23;20454;-79
2023/01/26 01:48:46;;;;;;;31.73;11.90;;;2.40;99.90;;;;;;6066810;23;20042;-79
2023/01/26 01:51:27;;;;;;;32.17;13.60;;;2.40;99.90;;;;;;6067800;23;20022;-79
2023/01/26 01:53:58;;;;;;;30.77;12.15;;;2.40;99.90;;;;;;6092482;23;20018;-79
2023/01/26 01:56:28;;;;;;;31.03;13.63;;;2.40;99.90;;;;;;6068315;23;20462;-79
2023/01/26 01:58:58;;;;;;;29.95;13.05;;;2.40;99.90;;;;;;6065821;23;20267;-79
2023/01/26 02:01:26;;;;;;;32.17;13.25;;;2.40;99.90;;;;;;6067911;23;20359;-79
2023/01/26 02:03:57;;;;;;;37.00;14.57;;;2.40;99.90;;;;;;6067333;23;20478;-79
2023/01/26 02:06:45;;;;;;;31.08;12.75;;;2.40;99.90;;;;;;6066494;23;20032;-79
2023/01/26 02:10:17;;;;;;;34.50;12.80;;;2.40;99.90;;;;;;6067002;23;20053;-79
2023/01/26 02:12:02;;;;;;;33.55;13.38;;;2.40;99.90;;;;;;6092288;23;20011;-79
2023/01/26 02:14:31;;;;;;;32.60;13.18;;;2.40;99.90;;;;;;6065878;23;20033;-79
2023/01/26 02:16:59;;;;;;;32.47;12.10;;;2.40;99.90;;;;;;6067000;23;20313;-80
2023/01/26 02:19:31;;;;;;;31.33;13.05;;;2.40;99.90;;;;;;6068032;23;20033;-79
2023/01/26 02:22:07;;;;;;;32.65;14.15;;;2.40;99.90;;;;;;6066171;23;20398;-79
2023/01/26 02:24:37;;;;;;;32.70;13.30;;;2.40;99.90;;;;;;6066498;23;20026;-79
2023/01/26 02:27:05;;;;;;;31.58;12.75;;;2.40;99.90;;;;;;6038493;23;20565;-79
2023/01/26 02:29:32;;;;;;;30.13;12.90;;;2.40;99.90;;;;;;6064863;23;20490;-80
2023/01/26 02:32:00;;;;;;;33.42;13.57;;;2.40;99.90;;;;;;6067305;23;20018;-79
2023/01/26 02:34:27;;;;;;;35.75;13.23;;;2.40;99.90;;;;;;6068128;23;20116;-79
2023/01/26 02:36:59;;;;;;;33.17;13.10;;;2.40;99.90;;;;;;6067656;23;20049;-79
2023/01/26 02:39:52;;;;;;;25.45;9.88;;;2.40;99.90;;;;;;6066755;23;20022;-79
2023/01/26 02:42:37;;;;;;;30.77;13.57;;;2.40;99.90;;;;;;6067958;23;20022;-79
2023/01/26 02:45:06;;;;;;;33.58;12.82;;;2.40;99.90;;;;;;6065487;23;20121;-80
2023/01/26 02:47:33;;;;;;;41.92;15.27;;;2.30;99.90;;;;;;6087260;23;20474;-80
2023/01/26 02:50:03;;;;;;;59.20;25.88;;;2.40;99.90;;;;;;6066258;23;20027;-79
2023/01/26 02:52:30;;;;;;;57.95;28.27;;;2.30;99.90;;;;;;6066134;23;20022;-79
2023/01/26 02:55:21;;;;;;;68.88;34.40;;;2.30;99.90;;;;;;6066670;23;20048;-79
2023/01/26 02:57:50;;;;;;;61.72;26.90;;;2.40;99.90;;;;;;6066173;23;20076;-79
2023/01/26 03:00:21;;;;;;;43.42;18.63;;;2.40;99.90;;;;;;6065346;23;20026;-79
2023/01/26 03:02:52;;;;;;;42.78;18.63;;;2.30;99.90;;;;;;6042663;23;20089;-79
2023/01/26 03:05:19;;;;;;;40.08;15.95;;;2.40;99.90;;;;;;6067677;23;20026;-79
2023/01/26 03:07:46;;;;;;;39.88;15.18;;;2.40;99.90;;;;;;6062812;23;20050;-79
2023/01/26 03:10:17;;;;;;;36.55;15.30;;;2.40;99.90;;;;;;6067501;23;20023;-79
2023/01/26 03:12:45;;;;;;;38.80;16.13;;;2.40;99.90;;;;;;6066493;23;20216;-79
2023/01/26 03:29:11;;;;;;;37.22;14.95;;;2.30;99.90;;;;;;6091669;23;20469;-79
2023/01/26 03:31:40;;;;;;;38.10;15.23;;;2.30;99.90;;;;;;6066391;23;20025;-79
2023/01/26 03:34:08;;;;;;;35.70;14.85;;;2.40;99.90;;;;;;6091601;23;20026;-79
2023/01/26 03:36:36;;;;;;;42.72;15.98;;;2.40;99.90;;;;;;6090363;23;20026;-79
2023/01/26 03:39:08;;;;;;;;;;;2.30;99.90;;;;;;6066045;23;20033;-79
2023/01/26 03:58:12;;;;;;;37.83;14.85;;;2.30;99.90;;;;;;6093246;23;20399;-79
2023/01/26 04:00:39;;;;;;;31.50;13.57;;;2.30;99.90;;;;;;6092589;23;20491;-79
2023/01/26 04:08:47;;;;;;;31.83;13.32;;;2.20;99.90;;;;;;6092743;23;20018;-79
2023/01/26 04:11:14;;;;;;;32.40;14.38;;;2.20;99.90;;;;;;6066938;23;20054;-79
2023/01/26 04:22:05;;;;;;;32.65;12.20;;;2.20;99.90;;;;;;6066760;23;20025;-79
2023/01/26 04:24:34;;;;;;;34.30;13.43;;;2.20;99.90;;;;;;6068197;23;20026;-79
2023/01/26 04:27:02;;;;;;;36.45;13.50;;;2.30;99.90;;;;;;6067892;23;20105;-80
2023/01/26 04:29:34;;;;;;;29.40;13.00;;;2.30;99.90;;;;;;6068097;23;20019;-79
2023/01/26 04:32:02;;;;;;;31.05;12.13;;;2.30;99.90;;;;;;6067838;23;20026;-79
2023/01/26 04:34:31;;;;;;;26.73;10.93;;;1.60;99.90;;;;;;6068220;23;20023;-79
2023/01/26 04:36:58;;;;;;;27.58;9.73;;;2.20;99.90;;;;;;6067247;23;20039;-80
2023/01/26 04:39:35;;;;;;;26.17;10.57;;;1.80;99.90;;;;;;6067445;23;20109;-79
2023/01/26 04:42:04;;;;;;;27.65;11.77;;;2.20;99.90;;;;;;6067776;23;20102;-80
2023/01/26 04:44:31;;;;;;;25.50;10.88;;;2.20;99.90;;;;;;6068028;23;20105;-79
2023/01/26 04:46:58;;;;;;;26.23;10.95;;;2.20;99.90;;;;;;6002954;23;20028;-79
2023/01/26 04:49:26;;;;;;;30.08;11.10;;;2.20;99.90;;;;;;5979679;23;20107;-79
2023/01/26 04:51:54;;;;;;;22.77;10.77;;;2.20;99.90;;;;;;5981341;23;20047;-79
2023/01/26 04:54:21;;;;;;;29.05;12.15;;;2.20;99.90;;;;;;5981500;23;20484;-79
2023/01/26 04:56:50;;;;;;;24.23;10.13;;;2.20;99.90;;;;;;5980597;23;20139;-79
2023/01/26 04:59:20;;;;;;;28.58;11.88;;;2.20;99.90;;;;;;5981003;23;20060;-79
2023/01/26 05:01:48;;;;;;;31.17;12.10;;;2.20;99.90;;;;;;5955903;23;20063;-79
2023/01/26 05:04:15;;;;;;;25.05;11.02;;;2.10;99.90;;;;;;5979043;23;20357;-79
2023/01/26 05:06:45;;;;;;;27.42;10.98;;;2.20;99.90;;;;;;5957010;23;20035;-79
2023/01/26 05:09:12;;;;;;;27.23;10.40;;;2.20;99.90;;;;;;5979254;23;20023;-79
2023/01/26 05:11:41;;;;;;;29.15;11.57;;;2.20;99.90;;;;;;5980520;23;20415;-78
2023/01/26 05:14:27;;;;;;;24.95;10.52;;;2.20;99.90;;;;;;5983071;23;20115;-78
2023/01/26 05:17:03;;;;;;;22.33;9.48;;;1.80;99.90;;;;;;5967357;23;20027;-79
2023/01/26 05:19:54;;;;;;;21.70;9.05;;;2.20;99.90;;;;;;6084310;23;20085;-79
2023/01/26 05:22:37;;;;;;;26.70;8.85;;;2.20;99.90;;;;;;6047498;23;20085;-79
2023/01/26 05:25:23;;;;;;;26.48;10.18;;;2.20;99.90;;;;;;6071745;23;20105;-79
2023/01/26 05:27:57;;;;;;;25.38;10.07;;;2.20;99.90;;;;;;6069054;23;20411;-79
2023/01/26 05:30:24;;;;;;;25.83;10.63;;;1.40;99.90;;;;;;6044245;23;20402;-79
2023/01/26 05:32:52;;;;;;;25.83;10.18;;;2.20;99.90;;;;;;6067440;23;20027;-79
2023/01/26 05:35:20;;;;;;;24.05;9.82;;;2.20;99.90;;;;;;6067672;23;20451;-79
2023/01/26 05:37:47;;;;;;;21.00;9.73;;;2.20;99.90;;;;;;6067699;23;20029;-79
2023/01/26 05:40:15;;;;;;;25.40;9.82;;;2.20;99.90;;;;;;6043164;23;20028;-79
2023/01/26 05:42:43;;;;;;;25.70;9.07;;;2.20;99.90;;;;;;6044258;23;20026;-79
2023/01/26 05:45:39;;;;;;;25.35;9.48;;;2.20;99.90;;;;;;6049496;23;20019;-79
2023/01/26 05:48:08;;;;;;;23.33;11.10;;;2.20;99.90;;;;;;6066958;23;20033;-79
2023/01/26 05:50:35;;;;;;;23.83;9.98;;;2.20;99.90;;;;;;6066647;23;20026;-78
2023/01/26 05:53:28;;;;;;;21.73;9.85;;;2.10;99.90;;;;;;6069402;23;20029;-79
2023/01/26 05:55:56;;;;;;;46.33;19.52;;;2.10;99.90;;;;;;6066897;23;20026;-79
2023/01/26 05:58:25;;;;;;;32.95;14.10;;;2.20;99.90;;;;;;6066926;23;20033;-79
2023/01/26 06:00:53;;;;;;;35.05;13.10;;;2.20;99.90;;;;;;6067364;23;20141;-79
2023/01/26 06:03:25;;;;;;;29.52;13.18;;;2.20;99.90;;;;;;6091966;23;20022;-79
2023/01/26 06:05:54;;;;;;;36.40;12.95;;;2.20;99.90;;;;;;6065966;23;20049;-79
2023/01/26 06:08:36;;;;;;;41.08;15.48;;;2.20;99.90;;;;;;6067023;23;20070;-79
2023/01/26 06:11:26;;;;;;;43.50;15.60;;;2.20;99.90;;;;;;6068267;23;20555;-79
2023/01/26 06:14:26;;;;;;;40.53;16.52;;;2.20;99.90;;;;;;6046387;23;20037;-79
2023/01/26 06:16:55;;;;;;;34.90;14.02;;;2.20;99.90;;;;;;6059939;23;20046;-79
2023/01/26 06:19:23;;;;;;;34.70;13.85;;;2.10;99.90;;;;;;6061837;23;20027;-79
2023/01/26 06:21:56;;;;;;;34.75;13.52;;;2.10;99.90;;;;;;6062173;23;20046;-79
2023/01/26 06:24:23;;;;;;;29.35;11.32;;;2.10;99.90;;;;;;6060950;23;20515;-79
2023/01/26 06:26:51;;;;;;;30.33;11.75;;;2.10;99.90;;;;;;6061948;23;20105;-79
2023/01/26 06:29:18;;;;;;;26.80;11.45;;;2.10;99.90;;;;;;6062027;23;20023;-79
2023/01/26 06:31:45;;;;;;;26.40;11.07;;;2.10;99.90;;;;;;6062513;23;20137;-78
2023/01/26 06:34:13;;;;;;;24.15;10.23;;;2.10;99.90;;;;;;6037967;23;20047;-78
2023/01/26 06:36:41;;;;;;;29.88;11.70;;;2.10;99.90;;;;;;6062460;23;20045;-79
2023/01/26 06:39:15;;;;;;;27.33;11.07;;;2.10;99.90;;;;;;6061726;23;20027;-79
2023/01/26 06:41:43;;;;;;;37.30;12.20;;;2.10;99.90;;;;;;6060819;23;20053;-79
2023/01/26 06:44:11;;;;;;;37.92;13.70;;;2.20;99.90;;;;;;6038250;23;20025;-79
2023/01/26 06:46:39;;;;;;;36.08;13.35;;;2.10;99.90;;;;;;6062428;23;20031;-79
2023/01/26 06:49:08;;;;;;;33.40;12.40;;;2.10;99.90;;;;;;6061518;23;20034;-80
2023/01/26 06:51:45;;;;;;;23.30;9.23;;;2.10;99.90;;;;;;6062667;23;20019;-79
2023/01/26 06:54:13;;;;;;;23.02;9.23;;;2.10;99.90;;;;;;6061547;23;20042;-80
2023/01/26 06:57:01;;;;;;;20.48;8.93;;;2.10;99.90;;;;;;6047095;23;20019;-80
2023/01/26 06:59:57;;;;;;;24.92;9.82;;;2.10;99.90;;;;;;6034956;23;20045;-80
2023/01/26 07:02:32;;;;;;;26.25;11.40;;;2.10;99.90;;;;;;6058898;23;20019;-79
2023/01/26 07:04:59;;;;;;;22.30;10.25;;;2.10;99.90;;;;;;6061098;23;20019;-79
2023/01/26 07:07:26;;;;;;;30.67;11.82;;;2.10;99.90;;;;;;6057985;23;20037;-79
2023/01/26 07:09:54;;;;;;;28.45;10.43;;;2.20;99.90;;;;;;6061073;23;20026;-79
2023/01/26 07:12:21;;;;;;;26.92;10.43;;;2.20;99.90;;;;;;6036396;23;20029;-79
2023/01/26 07:14:50;;;;;;;23.63;10.27;;;2.10;99.90;;;;;;6064913;23;20110;-79
2023/01/26 07:17:18;;;;;;;29.23;11.00;;;2.20;99.90;;;;;;6067914;23;20018;-78
2023/01/26 07:19:45;;;;;;;26.63;10.95;;;2.20;99.90;;;;;;6066016;23;20387;-78
2023/01/26 07:22:13;;;;;;;27.35;11.23;;;2.10;99.90;;;;;;6068826;23;20383;-78
2023/01/26 07:24:40;;;;;;;30.02;11.68;;;2.20;99.90;;;;;;6068485;23;20388;-79
2023/01/26 07:27:07;;;;;;;28.75;12.00;;;2.10;99.90;;;;;;6066676;23;20018;-79
2023/01/26 07:29:34;;;;;;;24.88;11.07;;;2.20;99.90;;;;;;6092108;23;20018;-79
2023/01/26 07:32:02;;;;;;;23.27;9.70;;;2.10;99.90;;;;;;6069590;23;20019;-79
2023/01/26 07:34:29;;;;;;;23.55;9.15;;;2.10;99.90;;;;;;6067297;23;20018;-78
2023/01/26 07:36:56;;;;;;;25.38;9.65;;;2.10;99.90;;;;;;6066646;23;20018;-78
2023/01/26 07:39:23;;;;;;;21.52;9.45;;;2.10;99.90;;;;;;6046479;23;20023;-79
2023/01/26 07:41:50;;;;;;;23.23;9.15;;;2.10;99.90;;;;;;6043153;23;20022;-80
2023/01/26 07:44:33;;;;;;;;;;;2.00;99.90;;;;;;6070102;23;20018;-79
2023/01/26 07:47:00;;;;;;;23.35;8.80;;;2.00;99.90;;;;;;6067789;23;19955;-79
2023/01/26 07:49:28;;;;;;;24.80;10.50;;;2.10;99.90;;;;;;6069804;23;20026;-79
2023/01/26 07:51:55;;;;;;;27.42;9.32;;;2.00;99.90;;;;;;6069167;23;20498;-79
2023/01/26 07:54:22;;;;;;;25.25;8.07;;;2.10;99.90;;;;;;6066598;23;20037;-79
2023/01/26 07:56:53;;;;;;;27.80;10.07;;;2.10;99.90;;;;;;6067726;23;20469;-79
2023/01/26 07:59:21;;;;;;;24.42;10.13;;;2.10;99.90;;;;;;6068691;23;20049;-79
2023/01/26 08:01:49;;;;;;;25.65;9.93;;;2.80;99.90;;;;;;6067469;23;20022;-79
2023/01/26 08:04:17;;;;;;;27.38;9.77;;;2.20;99.90;;;;;;6068278;23;20026;-79
2023/01/26 08:06:44;;;;;;;24.52;8.88;;;2.10;99.90;;;;;;6067637;23;20022;-79
2023/01/26 08:09:11;;;;;;;26.73;8.48;;;2.10;99.90;;;;;;6067184;23;20097;-79
2023/01/26 08:11:39;;;;;;;22.65;8.80;;;2.10;99.90;;;;;;6068352;23;20351;-79
2023/01/26 08:14:06;;;;;;;25.83;9.52;;;2.20;99.90;;;;;;6068506;23;20458;-79
2023/01/26 08:16:33;;;;;;;24.05;9.32;;;2.20;99.90;;;;;;6066975;23;20432;-79
2023/01/26 08:19:01;;;;;;;23.42;9.75;;;2.20;99.90;;;;;;6066403;23;20033;-79
2023/01/26 08:21:28;;;;;;;27.15;9.77;;;2.20;99.90;;;;;;6065213;23;20082;-79
2023/01/26 08:24:00;;;;;;;26.42;9.38;;;2.30;99.90;;;;;;6067369;23;20211;-79
2023/01/26 08:26:28;;;;;;;27.90;9.82;;;2.30;99.90;;;;;;6044480;23;20069;-79
2023/01/26 08:28:55;;;;;;;30.02;10.73;;;2.30;99.90;;;;;;6067435;23;20018;-79
2023/01/26 08:31:24;;;;;;;21.40;10.05;;;2.30;99.90;;;;;;6066091;23;20080;-79
2023/01/26 08:33:53;;;;;;;25.70;8.63;;;2.30;99.90;;;;;;6092619;23;20028;-79
2023/01/26 08:36:21;;;;;;;26.10;9.40;;;2.30;99.90;;;;;;6064635;23;20606;-79
2023/01/26 08:38:49;;;;;;;24.42;8.88;;;2.30;99.90;;;;;;6065562;23;20353;-79
2023/01/26 08:41:17;;;;;;;23.00;9.07;;;2.30;99.90;;;;;;6065914;23;20023;-79
2023/01/26 08:43:44;;;;;;;23.42;8.45;;;2.30;99.90;;;;;;6042268;23;20145;-79
2023/01/26 08:46:12;;;;;;;23.00;8.27;;;2.40;99.90;;;;;;6068185;23;20054;-79
2023/01/26 08:48:39;;;;;;;23.13;7.93;;;2.40;99.90;;;;;;6093804;23;20033;-79
2023/01/26 08:51:07;;;;;;;24.40;9.07;;;2.40;99.90;;;;;;6068619;23;20019;-79
2023/01/26 08:53:36;;;;;;;24.27;9.32;;;2.40;99.90;;;;;;6068767;23;20355;-79
2023/01/26 08:56:05;;;;;;;19.75;8.15;;;2.40;99.90;;;;;;6093194;23;20045;-79
2023/01/26 08:58:33;;;;;;;25.15;8.75;;;2.40;99.90;;;;;;6066565;23;20041;-79
2023/01/26 09:01:05;;;;;;;24.13;9.10;;;2.40;99.90;;;;;;6043731;23;20088;-79
2023/01/26 09:03:32;;;;;;;23.08;8.15;;;2.50;99.90;;;;;;6065730;23;20026;-78
2023/01/26 09:06:01;;;;;;;22.58;8.23;;;2.50;99.90;;;;;;6040990;23;20025;-78
2023/01/26 09:08:28;;;;;;;27.10;10.32;;;2.50;99.90;;;;;;6091628;23;20022;-79
2023/01/26 09:10:55;;;;;;;28.15;8.95;;;2.50;99.90;;;;;;6066539;23;20021;-79
2023/01/26 09:13:23;;;;;;;25.33;11.00;;;2.50;99.90;;;;;;6066359;23;20026;-79
2023/01/26 09:15:50;;;;;;;22.58;8.60;;;2.50;99.90;;;;;;6042297;23;20034;-79
2023/01/26 09:18:17;;;;;;;29.40;9.70;;;2.50;99.90;;;;;;6066713;23;20026;-79
2023/01/26 09:20:44;;;;;;;30.13;10.48;;;2.50;99.90;;;;;;6067252;23;20026;-79
2023/01/26 09:23:12;;;;;;;25.77;9.82;;;2.50;99.90;;;;;;6086201;23;20022;-79
2023/01/26 09:25:39;;;;;;;23.13;9.15;;;2.50;99.90;;;;;;6064621;23;20343;-78
2023/01/26 09:28:06;;;;;;;29.42;9.75;;;2.50;99.90;;;;;;6065069;23;20108;-78
2023/01/26 09:30:33;;;;;;;26.42;8.98;;;2.50;99.90;;;;;;6065435;23;20030;-78
2023/01/26 09:33:03;;;;;;;28.27;9.48;;;2.60;99.90;;;;;;6065638;23;20022;-79
2023/01/26 09:35:30;;;;;;;29.02;9.88;;;2.50;99.90;;;;;;6064882;23;20026;-79
2023/01/26 09:37:57;;;;;;;31.70;10.52;;;2.60;99.90;;;;;;6062664;23;20018;-79
2023/01/26 09:40:30;;;;;;;30.52;11.32;;;2.60;99.90;;;;;;6087611;23;20060;-79
2023/01/26 09:43:00;;;;;;;26.95;10.13;;;2.60;99.90;;;;;;6066792;23;20026;-79
2023/01/26 09:46:22;;;;;;;24.70;10.00;;;2.60;99.90;;;;;;6063101;23;20018;-78
2023/01/26 09:49:00;;;;;;;29.10;10.65;;;2.70;99.90;;;;;;5975644;24;20024;-78
2023/01/26 09:51:38;;;;;;;28.30;10.20;;;2.70;99.90;;;;;;5974948;24;20035;-78
2023/01/26 09:54:23;;;;;;;27.50;10.75;;;2.70;99.90;;;;;;6020351;23;20105;-79
2023/01/26 09:56:50;;;;;;;26.45;10.50;;;2.70;99.90;;;;;;6063548;23;20057;-78
2023/01/26 09:59:49;;;;;;;23.23;10.13;;;2.70;99.90;;;;;;6092599;23;20042;-78
2023/01/26 10:02:34;;;;;;;25.35;9.98;;;2.70;99.90;;;;;;6065787;23;20491;-79
2023/01/26 10:05:10;;;;;;;23.30;9.27;;;2.70;99.90;;;;;;6040708;23;20022;-79
2023/01/26 10:07:38;;;;;;;26.27;10.15;;;2.80;99.90;;;;;;6086602;23;20418;-79
2023/01/26 10:10:06;;;;;;;29.20;9.07;;;2.80;99.90;;;;;;6064604;23;20034;-79
2023/01/26 10:12:36;;;;;;;24.90;9.57;;;2.80;99.90;;;;;;6062781;23;20022;-79
2023/01/26 10:15:15;;;;;;;25.38;9.45;;;2.80;99.90;;;;;;6064883;23;20455;-79
2023/01/26 10:17:46;;;;;;;24.40;9.88;;;2.80;99.90;;;;;;6064335;23;20533;-79
2023/01/26 10:20:13;;;;;;;22.13;8.35;;;2.80;99.90;;;;;;6063533;23;20046;-79
2023/01/26 10:22:47;;;;;;;24.65;10.25;;;2.80;99.90;;;;;;6063008;23;20390;-79
2023/01/26 10:25:19;;;;;;;27.88;9.27;;;2.80;99.90;;;;;;6066636;23;20041;-79
2023/01/26 10:27:46;;;;;;;23.00;9.77;;;2.80;99.90;;;;;;6064829;23;20097;-79
2023/01/26 10:30:15;;;;;;;27.38;9.52;;;2.80;99.90;;;;;;6064505;23;20018;-78
2023/01/26 10:32:44;;;;;;;21.92;9.82;;;2.80;99.90;;;;;;6066463;23;20026;-78
2023/01/26 10:35:21;;;;;;;27.20;11.50;;;2.80;99.90;;;;;;6062567;23;20019;-78
2023/01/26 10:37:51;;;;;;;24.95;9.77;;;2.80;99.90;;;;;;6087548;23;20018;-79
2023/01/26 10:40:19;;;;;;;30.52;13.80;;;2.80;99.90;;;;;;6065501;23;20033;-78
2023/01/26 10:42:59;;;;;;;27.35;10.52;;;2.80;99.90;;;;;;6063775;23;20438;-78
2023/01/26 10:45:32;;;;;;;27.80;12.32;;;2.70;99.90;;;;;;6066926;23;20023;-78
2023/01/26 10:48:05;;;;;;;31.10;11.85;;;2.80;99.90;;;;;;6087884;23;20019;-79
2023/01/26 10:50:33;;;;;;;33.25;12.13;;;2.80;99.90;;;;;;6064764;23;20038;-79
2023/01/26 10:53:03;;;;;;;31.75;12.13;;;2.80;99.90;;;;;;6065314;23;20029;-79
2023/01/26 10:55:32;;;;;;;29.02;9.98;;;2.80;99.90;;;;;;6041083;23;20022;-79
2023/01/26 10:58:00;;;;;;;27.33;11.27;;;2.90;99.90;;;;;;6063569;23;20030;-78
2023/01/26 11:00:31;;;;;;;25.77;10.40;;;2.80;99.90;;;;;;6062148;23;20038;-78
2023/01/26 11:03:04;;;;;;;20.70;8.60;;;2.80;99.90;;;;;;6065668;23;20019;-78
2023/01/26 11:05:32;;;;;;;20.67;8.07;;;2.90;99.90;;;;;;6062468;23;20057;-78
2023/01/26 11:08:01;;;;;;;28.40;10.68;;;2.90;99.90;;;;;;6088955;23;20409;-78
2023/01/26 11:10:31;;;;;;;26.80;10.95;;;2.90;99.90;;;;;;6066029;23;20022;-78
2023/01/26 11:13:07;;;;;;;25.38;9.27;;;3.00;99.90;;;;;;6065400;23;20100;-78
2023/01/26 11:15:40;;;;;;;22.85;9.25;;;3.00;99.90;;;;;;6092752;23;20086;-78
2023/01/26 11:18:42;;;;;;;25.55;10.77;;;3.00;99.90;;;;;;6068421;23;20109;-78
2023/01/26 11:21:19;;;;;;;29.17;10.48;;;3.00;99.90;;;;;;6062277;23;20026;-78
2023/01/26 11:23:46;;;;;;;25.35;11.07;;;3.10;99.90;;;;;;6090127;23;20018;-78
2023/01/26 11:26:34;;;;;;;27.25;10.27;;;3.10;99.90;;;;;;6062864;23;20030;-78
2023/01/26 11:29:07;;;;;;;26.38;12.55;;;3.10;99.90;;;;;;6064471;23;20399;-78
2023/01/26 11:31:37;;;;;;;;;;;3.10;99.90;;;;;;6068797;23;20030;-77
2023/01/26 11:34:23;;;;;;;26.67;11.10;;;3.10;99.90;;;;;;6045800;23;19921;-77
2023/01/26 11:37:21;;;;;;;25.88;10.23;;;3.20;99.90;;;;;;6066953;23;20019;-77
2023/01/26 11:39:57;;;;;;;29.52;11.57;;;3.20;99.90;;;;;;6066678;23;20027;-77
2023/01/26 11:42:56;;;;;;;31.95;10.55;;;3.20;99.90;;;;;;6068566;23;20122;-77
2023/01/26 11:45:44;;;;;;;27.77;10.45;;;3.20;99.90;;;;;;6069910;23;20023;-77
2023/01/26 11:48:27;;;;;;;24.35;9.25;;;3.20;99.90;;;;;;6042256;23;20425;-77
2023/01/26 11:51:03;;;;;;;24.58;9.50;;;3.20;99.90;;;;;;6068228;23;20041;-77
2023/01/26 11:54:02;;;;;;;29.38;10.20;;;3.20;99.90;;;;;;6067652;23;20439;-77
2023/01/26 11:56:49;;;;;;;26.42;9.77;;;3.20;99.90;;;;;;6069301;23;20057;-77
2023/01/26 11:59:22;;;;;;;21.77;8.63;;;3.20;99.90;;;;;;6066771;23;20085;-79
2023/01/26 12:02:01;;;;;;;28.48;11.70;;;3.20;99.90;;;;;;6067028;23;20031;-78
2023/01/26 12:04:32;;;;;;;28.25;10.98;;;3.20;99.90;;;;;;6065906;23;20033;-77
2023/01/26 12:07:26;;;;;;;26.83;10.98;;;3.30;99.90;;;;;;6066863;23;20104;-77
2023/01/26 12:09:53;;;;;;;28.90;9.90;;;3.30;99.90;;;;;;6092728;23;20014;-77
2023/01/26 12:12:30;;;;;;;28.35;11.93;;;3.30;99.90;;;;;;6043697;23;20048;-77
2023/01/26 12:15:19;;;;;;;26.35;10.90;;;3.20;99.90;;;;;;6065591;23;20045;-77
2023/01/26 12:18:10;;;;;;;31.45;11.88;;;3.20;99.90;;;;;;6065868;23;20026;-78
2023/01/26 12:20:45;;;;;;;24.10;9.88;;;3.20;99.90;;;;;;6067960;23;20074;-78
2023/01/26 12:23:37;;;;;;;23.15;8.73;;;3.20;99.90;;;;;;6066520;23;20034;-78
2023/01/26 12:26:15;;;;;;;26.50;8.88;;;3.20;99.90;;;;;;6064970;23;20026;-78
2023/01/26 12:28:49;;;;;;;29.95;10.65;;;3.30;99.90;;;;;;6065003;23;20030;-78
2023/01/26 12:31:23;;;;;;;27.60;11.38;;;3.20;99.90;;;;;;6065979;23;20025;-78
2023/01/26 12:33:53;;;;;;;26.15;10.10;;;3.30;99.90;;;;;;6065268;23;20522;-78
2023/01/26 12:36:46;;;;;;;25.58;10.65;;;3.30;99.90;;;;;;6042897;23;20113;-78
2023/01/26 12:39:39;;;;;;;27.73;13.15;;;3.30;99.90;;;;;;6066256;23;20026;-78
2023/01/26 12:42:15;;;;;;;23.67;9.20;;;3.30;99.90;;;;;;6065434;23;20036;-78
2023/01/26 12:45:03;;;;;;;27.17;9.73;;;3.30;99.90;;;;;;6093088;23;20105;-78
2023/01/26 12:47:33;;;;;;;26.35;11.13;;;3.40;99.90;;;;;;6065719;23;20101;-78
2023/01/26 12:50:20;;;;;;;25.13;9.65;;;3.30;99.90;;;;;;6088612;23;20463;-78
2023/01/26 12:52:51;;;;;;;24.08;9.18;;;3.30;99.90;;;;;;6064381;23;20028;-78
2023/01/26 12:55:29;;;;;;;24.80;11.18;;;3.30;99.90;;;;;;6066595;23;20030;-78
2023/01/26 12:58:17;;;;;;;27.08;9.43;;;3.30;99.90;;;;;;6064921;23;20116;-78
2023/01/26 13:01:12;;;;;;;28.13;9.25;;;3.40;99.90;;;;;;6067790;23;20462;-78
2023/01/26 13:03:57;;;;;;;22.77;8.57;;;3.40;99.90;;;;;;6066678;23;20026;-78
2023/01/26 13:06:27;;;;;;;25.85;10.52;;;3.40;99.90;;;;;;6069334;23;20018;-78
2023/01/26 13:09:22;;;;;;;25.90;10.30;;;3.40;99.90;;;;;;6065947;23;20030;-78
2023/01/26 13:11:55;;;;;;;27.92;9.73;;;3.40;99.90;;;;;;6069272;23;20027;-78
2023/01/26 13:14:32;;;;;;;28.23;9.85;;;3.40;99.90;;;;;;6044816;23;20082;-77
2023/01/26 13:17:14;;;;;;;107.05;27.23;;;3.40;99.90;;;;;;6067889;23;20033;-77
2023/01/26 13:19:41;;;;;;;98.35;32.15;;;3.40;99.90;;;;;;6071162;23;20022;-78
2023/01/26 13:22:17;;;;;;;30.63;10.27;;;3.40;99.90;;;;;;6069744;23;20101;-78
2023/01/26 13:24:47;;;;;;;47.10;17.13;;;3.40;99.90;;;;;;6090261;23;20406;-78
2023/01/26 13:27:38;;;;;;;118.93;45.78;;;3.40;99.90;;;;;;6068166;23;20018;-78
2023/01/26 13:30:21;;;;;;;41.40;18.90;;;3.40;99.90;;;;;;6091041;23;20022;-78
2023/01/26 13:32:48;;;;;;;42.22;21.98;;;3.40;99.90;;;;;;6091638;23;20042;-78
2023/01/26 13:35:21;;;;;;;52.22;26.65;;;3.40;99.90;;;;;;6068460;23;20023;-78
2023/01/26 13:37:51;;;;;;;;;;;3.40;99.90;;;;;;6093361;23;20060;-78
2023/01/26 13:40:20;;;;;;;31.80;16.85;;;3.30;99.90;;;;;;6068846;23;20327;-78
2023/01/26 13:43:13;;;;;;;26.52;11.35;;;3.30;99.90;;;;;;6067321;23;20022;-78
2023/01/26 13:46:02;;;;;;;28.02;13.10;;;3.30;99.90;;;;;;6069106;23;20030;-78
2023/01/26 13:48:38;;;;;;;31.10;12.57;;;3.30;99.90;;;;;;6068850;23;20050;-78
2023/01/26 13:51:11;;;;;;;36.85;13.90;;;3.30;99.90;;;;;;6068628;23;20018;-78
2023/01/26 13:53:53;;;;;;;49.63;17.38;;;3.30;99.90;;;;;;6069366;23;20022;-78